createdAt,value
2018-08-28T00:01:32.294Z,99.90
2018-08-28T00:04:00.752Z,99.90
2018-08-28T00:06:29.192Z,99.90
2018-08-28T00:08:57.621Z,99.90
2018-08-28T00:11:26.062Z,99.90
2018-08-28T00:13:54.501Z,99.90
2018-08-28T00:16:22.963Z,99.90
2018-08-28T00:18:51.444Z,99.90
2018-08-28T00:21:19.891Z,99.90
2018-08-28T00:23:48.323Z,99.90
2018-08-28T00:26:16.755Z,99.90
2018-08-28T00:28:45.207Z,99.90
2018-08-28T00:31:13.652Z,99.90
2018-08-28T00:33:42.072Z,99.90
2018-08-28T00:36:10.531Z,99.90
2018-08-28T00:38:38.964Z,99.90
2018-08-28T00:41:07.704Z,99.90
2018-08-28T00:43:36.164Z,99.90
2018-08-28T00:46:04.600Z,99.90
2018-08-28T00:48:33.015Z,99.90
2018-08-28T00:51:01.441Z,99.90
2018-08-28T00:53:29.872Z,99.90
2018-08-28T00:55:58.295Z,99.90
2018-08-28T00:58:26.736Z,99.90
2018-08-28T01:00:55.142Z,99.90
2018-08-28T01:03:23.572Z,99.90
2018-08-28T01:05:51.976Z,99.90
2018-08-28T01:08:20.397Z,99.90
2018-08-28T01:10:48.816Z,99.90
2018-08-28T01:13:17.236Z,99.90
2018-08-28T01:15:45.690Z,99.90
2018-08-28T01:18:14.128Z,99.90
2018-08-28T01:20:42.527Z,99.90
2018-08-28T01:23:10.969Z,99.90
2018-08-28T01:25:39.407Z,99.90
2018-08-28T01:28:07.836Z,99.90
2018-08-28T01:30:36.244Z,99.90
2018-08-28T01:33:05.836Z,99.90
2018-08-28T01:35:34.722Z,99.90
2018-08-28T01:38:03.207Z,99.90
2018-08-28T01:40:31.732Z,99.90
2018-08-28T01:43:00.601Z,99.90
2018-08-28T01:45:29.080Z,99.90
2018-08-28T01:47:57.501Z,99.90
2018-08-28T01:50:25.980Z,99.90
2018-08-28T01:52:54.702Z,99.90
2018-08-28T01:55:23.229Z,99.90
2018-08-28T01:57:51.644Z,99.90
2018-08-28T02:00:20.112Z,99.90
2018-08-28T02:02:48.574Z,99.90
2018-08-28T02:05:17.047Z,99.90
2018-08-28T02:07:45.460Z,99.90
2018-08-28T02:10:13.911Z,99.90
2018-08-28T02:12:42.364Z,99.90
2018-08-28T02:15:10.820Z,99.90
2018-08-28T02:17:39.727Z,99.90
2018-08-28T02:20:08.429Z,99.90
2018-08-28T02:22:36.892Z,99.90
2018-08-28T02:25:06.102Z,99.90
2018-08-28T02:27:34.540Z,99.90
2018-08-28T02:30:03.009Z,99.90
2018-08-28T02:32:31.476Z,99.90
2018-08-28T02:34:59.928Z,99.90
2018-08-28T02:37:28.416Z,99.90
2018-08-28T02:39:56.991Z,99.90
2018-08-28T02:42:25.424Z,99.90
2018-08-28T02:44:53.885Z,99.90
2018-08-28T02:47:22.342Z,99.90
2018-08-28T02:49:50.775Z,99.90
2018-08-28T02:52:19.205Z,99.90
2018-08-28T02:54:47.653Z,99.90
2018-08-28T02:57:16.107Z,99.90
2018-08-28T02:59:44.528Z,99.90
2018-08-28T03:02:12.958Z,99.90
2018-08-28T03:04:41.379Z,99.90
2018-08-28T03:07:09.818Z,99.90
2018-08-28T03:09:38.299Z,99.90
2018-08-28T03:12:06.782Z,99.90
2018-08-28T03:14:35.219Z,99.90
2018-08-28T03:17:03.692Z,99.90
2018-08-28T03:19:32.330Z,99.90
2018-08-28T03:22:00.820Z,99.90
2018-08-28T03:24:29.293Z,99.90
2018-08-28T03:26:57.707Z,99.90
2018-08-28T03:29:26.164Z,99.90
2018-08-28T03:31:54.605Z,99.90
2018-08-28T03:34:23.112Z,99.90
2018-08-28T03:36:51.549Z,99.90
2018-08-28T03:39:20.036Z,99.90
2018-08-28T03:41:48.476Z,99.90
2018-08-28T03:44:16.965Z,99.90
2018-08-28T03:46:45.382Z,99.90
2018-08-28T03:49:13.913Z,99.90
2018-08-28T03:51:42.354Z,99.90
2018-08-28T03:54:10.859Z,99.90
2018-08-28T03:56:39.268Z,99.90
2018-08-28T03:59:07.725Z,99.90
2018-08-28T04:01:36.138Z,99.90
2018-08-28T04:04:04.608Z,99.90
2018-08-28T04:06:33.056Z,99.90
2018-08-28T04:09:01.505Z,99.90
2018-08-28T04:11:29.926Z,99.90
2018-08-28T04:13:58.348Z,99.90
2018-08-28T04:16:26.772Z,99.90
2018-08-28T04:18:55.221Z,99.90
2018-08-28T04:21:23.701Z,99.90
2018-08-28T04:23:52.118Z,99.90
2018-08-28T04:26:20.577Z,99.90
2018-08-28T04:28:48.977Z,99.90
2018-08-28T04:31:17.433Z,99.90
2018-08-28T04:33:45.850Z,99.90
2018-08-28T04:36:14.304Z,99.90
2018-08-28T04:38:42.712Z,99.90
2018-08-28T04:41:11.510Z,99.90
2018-08-28T04:43:39.953Z,99.90
2018-08-28T04:46:08.783Z,99.90
2018-08-28T04:48:37.193Z,99.90
2018-08-28T04:51:05.818Z,99.90
2018-08-28T04:53:34.268Z,99.90
2018-08-28T04:56:02.771Z,99.90
2018-08-28T04:58:32.425Z,99.90
2018-08-28T05:01:00.868Z,99.90
2018-08-28T05:03:29.335Z,99.90
2018-08-28T05:05:57.765Z,99.90
2018-08-28T05:08:26.214Z,99.90
2018-08-28T05:10:54.627Z,99.90
2018-08-28T05:13:23.172Z,99.90
2018-08-28T05:15:51.647Z,99.90
2018-08-28T05:18:20.090Z,99.90
2018-08-28T05:20:48.550Z,99.90
2018-08-28T05:23:17.023Z,99.90
2018-08-28T05:25:45.447Z,99.90
2018-08-28T05:28:13.941Z,99.90
2018-08-28T05:30:42.409Z,99.90
2018-08-28T05:33:10.852Z,99.90
2018-08-28T05:35:39.292Z,99.90
2018-08-28T05:38:07.834Z,99.90
2018-08-28T05:40:36.309Z,99.90
2018-08-28T05:43:04.776Z,99.90
2018-08-28T05:45:33.208Z,99.90
2018-08-28T05:48:01.669Z,99.90
2018-08-28T05:50:30.110Z,99.90
2018-08-28T05:52:58.532Z,99.90
2018-08-28T05:55:27.002Z,99.90
2018-08-28T05:57:55.428Z,99.90
2018-08-28T06:00:23.867Z,99.90
2018-08-28T06:02:52.378Z,99.90
2018-08-28T06:05:20.785Z,99.90
2018-08-28T06:07:49.196Z,99.90
2018-08-28T06:10:17.637Z,99.90
2018-08-28T06:12:46.056Z,99.90
2018-08-28T06:15:14.512Z,99.90
2018-08-28T06:17:42.935Z,99.90
2018-08-28T06:20:11.399Z,99.90
2018-08-28T06:22:39.819Z,99.90
2018-08-28T06:25:08.277Z,99.90
2018-08-28T06:27:36.741Z,99.90
2018-08-28T06:30:05.265Z,99.90
2018-08-28T06:32:33.709Z,99.90
2018-08-28T06:35:02.140Z,99.90
2018-08-28T06:37:30.560Z,99.90
2018-08-28T06:39:59.020Z,99.90
2018-08-28T06:42:27.441Z,99.90
2018-08-28T06:44:55.885Z,99.90
2018-08-28T06:47:24.304Z,99.90
2018-08-28T06:49:52.776Z,99.90
2018-08-28T06:52:21.191Z,99.90
2018-08-28T06:54:49.701Z,99.90
2018-08-28T06:57:18.152Z,99.90
2018-08-28T06:59:46.628Z,99.90
2018-08-28T07:02:15.081Z,99.90
2018-08-28T07:04:43.872Z,99.90
2018-08-28T07:07:12.310Z,99.90
2018-08-28T07:09:40.778Z,99.90
2018-08-28T07:12:09.226Z,99.90
2018-08-28T07:14:37.725Z,98.80
2018-08-28T07:17:06.181Z,98.60
2018-08-28T07:19:34.653Z,99.10
2018-08-28T07:22:03.193Z,97.50
2018-08-28T07:24:31.620Z,95.50
2018-08-28T07:27:00.054Z,95.00
2018-08-28T07:29:28.523Z,94.60
2018-08-28T07:31:56.991Z,94.20
2018-08-28T07:34:25.380Z,94.30
2018-08-28T07:36:53.813Z,92.90
2018-08-28T07:39:22.249Z,92.50
2018-08-28T07:41:50.689Z,90.40
2018-08-28T07:44:19.143Z,91.10
2018-08-28T07:46:47.577Z,91.20
2018-08-28T07:49:16.014Z,90.50
2018-08-28T07:51:44.447Z,90.90
2018-08-28T07:54:12.894Z,89.60
2018-08-28T07:56:41.350Z,90.20
2018-08-28T07:59:10.258Z,87.10
2018-08-28T08:01:38.812Z,83.10
2018-08-28T08:04:07.312Z,83.80
2018-08-28T08:06:36.040Z,82.90
2018-08-28T08:09:06.546Z,81.60
2018-08-28T08:11:34.977Z,80.70
2018-08-28T08:14:03.431Z,82.80
2018-08-28T08:16:31.854Z,84.60
2018-08-28T08:19:00.304Z,81.20
2018-08-28T08:21:28.736Z,79.20
2018-08-28T08:23:57.181Z,78.10
2018-08-28T08:26:25.596Z,79.00
2018-08-28T08:28:54.031Z,81.10
2018-08-28T08:31:22.449Z,79.00
2018-08-28T08:33:50.927Z,78.70
2018-08-28T08:36:19.448Z,77.20
2018-08-28T08:38:47.876Z,77.20
2018-08-28T08:41:16.301Z,76.70
2018-08-28T08:43:44.739Z,76.40
2018-08-28T08:46:13.186Z,77.80
2018-08-28T08:48:41.619Z,78.40
2018-08-28T08:51:10.094Z,76.00
2018-08-28T08:53:38.605Z,75.80
2018-08-28T08:56:07.036Z,73.30
2018-08-28T08:58:35.477Z,72.60
2018-08-28T09:01:03.929Z,74.30
2018-08-28T09:03:32.380Z,73.50
2018-08-28T09:06:00.929Z,75.30
2018-08-28T09:08:29.365Z,75.70
2018-08-28T09:10:57.834Z,74.90
2018-08-28T09:13:26.332Z,74.10
2018-08-28T09:15:54.765Z,76.50
2018-08-28T09:18:23.231Z,76.50
2018-08-28T09:20:51.684Z,75.20
2018-08-28T09:23:20.098Z,73.90
2018-08-28T09:25:48.572Z,71.80
2018-08-28T09:28:17.016Z,71.20
2018-08-28T09:30:45.486Z,73.10
2018-08-28T09:33:13.937Z,72.50
2018-08-28T09:35:42.403Z,72.80
2018-08-28T09:38:10.872Z,73.00
2018-08-28T09:40:39.429Z,74.00
2018-08-28T09:43:07.879Z,72.10
2018-08-28T09:45:36.328Z,69.40
2018-08-28T09:48:05.032Z,67.30
2018-08-28T09:50:33.530Z,65.10
2018-08-28T09:53:01.964Z,61.50
2018-08-28T09:55:30.462Z,61.90
2018-08-28T09:57:58.936Z,63.60
2018-08-28T10:00:27.868Z,64.10
2018-08-28T10:02:57.317Z,67.40
2018-08-28T10:05:25.868Z,68.40
2018-08-28T10:07:54.452Z,70.40
2018-08-28T10:10:22.852Z,71.00
2018-08-28T10:12:51.326Z,71.40
2018-08-28T10:15:19.799Z,68.80
2018-08-28T10:17:48.363Z,69.70
2018-08-28T10:20:16.834Z,68.80
2018-08-28T10:22:45.370Z,67.90
2018-08-28T10:25:13.788Z,67.40
2018-08-28T10:27:42.332Z,65.20
2018-08-28T10:30:10.809Z,62.80
2018-08-28T10:32:39.297Z,63.00
2018-08-28T10:35:07.808Z,59.40
2018-08-28T10:37:36.293Z,59.20
2018-08-28T10:40:04.817Z,58.60
2018-08-28T10:42:33.304Z,58.40
2018-08-28T10:45:01.770Z,57.80
2018-08-28T10:47:30.326Z,59.50
2018-08-28T10:49:58.800Z,59.70
2018-08-28T10:52:27.311Z,60.60
2018-08-28T10:54:55.777Z,59.10
2018-08-28T10:57:24.224Z,60.90
2018-08-28T10:59:52.668Z,58.70
2018-08-28T11:02:21.154Z,58.40
2018-08-28T11:04:49.687Z,58.90
2018-08-28T11:07:18.144Z,59.50
2018-08-28T11:09:46.623Z,58.80
2018-08-28T11:12:15.101Z,59.80
2018-08-28T11:14:43.577Z,61.10
2018-08-28T11:17:12.030Z,64.00
2018-08-28T11:19:40.573Z,64.30
2018-08-28T11:22:09.087Z,63.20
2018-08-28T11:24:37.551Z,64.60
2018-08-28T11:27:06.015Z,60.20
2018-08-28T11:29:34.476Z,59.50
2018-08-28T11:32:03.146Z,59.60
2018-08-28T11:34:31.635Z,60.00
2018-08-28T11:37:00.102Z,59.50
2018-08-28T11:39:28.585Z,59.40
2018-08-28T11:41:57.051Z,59.00
2018-08-28T11:44:25.514Z,58.40
2018-08-28T11:46:54.001Z,57.90
2018-08-28T11:49:22.460Z,57.70
2018-08-28T11:51:50.924Z,59.50
2018-08-28T11:54:19.384Z,60.30
2018-08-28T11:56:47.840Z,60.50
2018-08-28T11:59:16.325Z,60.10
2018-08-28T12:01:44.792Z,60.00
2018-08-28T12:04:13.247Z,59.70
2018-08-28T12:06:41.743Z,58.80
2018-08-28T12:09:10.877Z,58.70
2018-08-28T12:11:39.356Z,58.60
2018-08-28T12:14:07.821Z,58.00
2018-08-28T12:16:36.324Z,58.00
2018-08-28T12:19:05.085Z,57.80
2018-08-28T12:21:33.536Z,55.70
2018-08-28T12:24:02.009Z,56.30
2018-08-28T12:26:30.543Z,57.30
2018-08-28T12:28:58.959Z,57.80
2018-08-28T12:31:27.416Z,57.00
2018-08-28T12:33:55.865Z,57.50
2018-08-28T12:36:24.318Z,56.10
2018-08-28T12:38:52.809Z,56.50
2018-08-28T12:41:21.269Z,56.30
2018-08-28T12:43:49.748Z,56.30
2018-08-28T12:46:18.208Z,56.30
2018-08-28T12:48:46.670Z,55.60
2018-08-28T12:51:15.173Z,55.60
2018-08-28T12:53:43.661Z,55.40
2018-08-28T12:56:12.155Z,55.10
2018-08-28T12:58:40.642Z,54.50
2018-08-28T13:01:09.160Z,54.90
2018-08-28T13:03:37.651Z,55.30
2018-08-28T13:06:06.206Z,55.00
2018-08-28T13:08:34.735Z,55.70
2018-08-28T13:11:03.214Z,55.70
2018-08-28T13:13:31.698Z,55.80
2018-08-28T13:16:00.248Z,56.60
2018-08-28T13:18:28.631Z,56.40
2018-08-28T13:20:57.100Z,57.00
2018-08-28T13:23:25.566Z,57.20
2018-08-28T13:25:54.040Z,58.00
2018-08-28T13:28:22.545Z,58.10
2018-08-28T13:30:51.016Z,57.70
2018-08-28T13:33:19.500Z,58.00
2018-08-28T13:35:47.942Z,58.30
2018-08-28T13:38:16.450Z,57.10
2018-08-28T13:40:45.113Z,57.20
2018-08-28T13:43:13.413Z,57.10
2018-08-28T13:45:41.879Z,57.20
2018-08-28T13:48:10.364Z,57.40
2018-08-28T13:50:38.904Z,57.70
2018-08-28T13:53:07.381Z,57.70
2018-08-28T13:55:35.844Z,58.40
2018-08-28T13:58:04.289Z,58.60
2018-08-28T14:00:32.756Z,58.00
2018-08-28T14:03:01.211Z,59.00
2018-08-28T14:05:29.690Z,58.50
2018-08-28T14:07:58.121Z,57.90
2018-08-28T14:10:26.570Z,58.50
2018-08-28T14:12:55.019Z,58.00
2018-08-28T14:15:23.476Z,57.90
2018-08-28T14:17:51.922Z,57.80
2018-08-28T14:20:20.367Z,58.20
2018-08-28T14:22:48.805Z,58.60
2018-08-28T14:25:17.380Z,58.10
2018-08-28T14:27:45.867Z,58.30
2018-08-28T14:30:14.362Z,58.50
2018-08-28T14:32:42.852Z,58.10
2018-08-28T14:35:11.328Z,58.30
2018-08-28T14:37:39.758Z,57.60
2018-08-28T14:40:08.258Z,58.10
2018-08-28T14:42:36.906Z,58.30
2018-08-28T14:45:05.321Z,58.40
2018-08-28T14:47:33.762Z,58.90
2018-08-28T14:50:02.332Z,59.40
2018-08-28T14:52:30.722Z,58.90
2018-08-28T14:54:59.199Z,59.30
2018-08-28T14:57:27.684Z,59.60
2018-08-28T14:59:56.157Z,59.40
2018-08-28T15:02:24.632Z,59.50
2018-08-28T15:04:53.130Z,59.00
2018-08-28T15:07:21.613Z,58.60
2018-08-28T15:09:50.085Z,58.80
2018-08-28T15:12:18.556Z,57.90
2018-08-28T15:14:47.021Z,58.40
2018-08-28T15:17:15.517Z,58.20
2018-08-28T15:19:43.953Z,58.10
2018-08-28T15:22:12.516Z,58.30
2018-08-28T15:24:40.956Z,59.30
2018-08-28T15:27:09.574Z,59.30
2018-08-28T15:29:37.965Z,59.10
2018-08-28T15:32:06.453Z,59.20
2018-08-28T15:34:34.904Z,58.80
2018-08-28T15:37:03.400Z,59.00
2018-08-28T15:39:31.852Z,59.10
2018-08-28T15:42:00.326Z,59.00
2018-08-28T15:44:28.806Z,58.90
2018-08-28T15:46:57.250Z,58.70
2018-08-28T15:49:25.719Z,58.50
2018-08-28T15:51:54.254Z,58.50
2018-08-28T15:54:23.524Z,59.00
2018-08-28T15:56:51.955Z,58.90
2018-08-28T15:59:20.400Z,58.40
2018-08-28T16:01:48.829Z,58.10
2018-08-28T16:04:19.670Z,58.40
2018-08-28T16:06:49.162Z,59.60
2018-08-28T16:09:17.604Z,60.20
2018-08-28T16:11:46.324Z,60.20
2018-08-28T16:14:15.140Z,60.50
2018-08-28T16:16:44.317Z,60.50
2018-08-28T16:19:12.785Z,60.40
2018-08-28T16:21:46.592Z,60.70
2018-08-28T16:24:15.063Z,61.50
2018-08-28T16:26:43.505Z,61.80
2018-08-28T16:29:12.188Z,61.30
2018-08-28T16:31:40.655Z,61.00
2018-08-28T16:34:10.027Z,61.70
2018-08-28T16:36:38.736Z,60.60
2018-08-28T16:39:08.655Z,61.40
2018-08-28T16:41:37.398Z,62.10
2018-08-28T16:44:05.924Z,63.80
2018-08-28T16:46:34.722Z,63.00
2018-08-28T16:49:03.171Z,62.80
2018-08-28T16:51:31.616Z,63.00
2018-08-28T16:54:00.111Z,67.10
2018-08-28T16:56:28.580Z,65.40
2018-08-28T16:58:57.046Z,68.10
2018-08-28T17:01:25.606Z,68.80
2018-08-28T17:03:54.000Z,67.10
2018-08-28T17:06:22.476Z,66.60
2018-08-28T17:08:50.947Z,66.60
2018-08-28T17:11:19.420Z,68.70
2018-08-28T17:13:47.903Z,70.20
2018-08-28T17:16:16.351Z,72.90
2018-08-28T17:18:44.816Z,73.80
2018-08-28T17:21:13.279Z,75.80
2018-08-28T17:23:41.713Z,74.60
2018-08-28T17:26:10.176Z,74.20
2018-08-28T17:28:38.635Z,78.70
2018-08-28T17:31:07.138Z,78.80
2018-08-28T17:33:35.562Z,80.40
2018-08-28T17:36:04.024Z,80.90
2018-08-28T17:38:32.529Z,80.90
2018-08-28T17:41:01.029Z,82.70
2018-08-28T17:43:29.547Z,83.90
2018-08-28T17:45:57.980Z,85.20
2018-08-28T17:48:26.456Z,83.80
2018-08-28T17:50:54.917Z,83.30
2018-08-28T17:53:23.386Z,82.40
2018-08-28T17:55:51.849Z,83.20
2018-08-28T17:58:20.336Z,83.20
2018-08-28T18:00:48.817Z,83.20
2018-08-28T18:03:17.290Z,83.80
2018-08-28T18:05:45.742Z,84.60
2018-08-28T18:08:14.197Z,85.90
2018-08-28T18:10:42.676Z,86.50
2018-08-28T18:13:11.143Z,87.00
2018-08-28T18:15:39.612Z,89.00
2018-08-28T18:18:08.092Z,88.60
2018-08-28T18:20:36.536Z,89.20
2018-08-28T18:23:05.276Z,89.80
2018-08-28T18:25:33.754Z,89.80
2018-08-28T18:28:02.216Z,90.00
2018-08-28T18:30:30.684Z,89.80
2018-08-28T18:32:59.122Z,90.20
2018-08-28T18:35:27.588Z,90.50
2018-08-28T18:37:56.040Z,90.70
2018-08-28T18:40:24.508Z,91.00
2018-08-28T18:42:52.960Z,91.30
2018-08-28T18:45:21.438Z,91.20
2018-08-28T18:47:49.872Z,91.40
2018-08-28T18:50:18.323Z,91.70
2018-08-28T18:52:46.760Z,92.00
2018-08-28T18:55:15.252Z,92.10
2018-08-28T18:57:43.679Z,92.30
2018-08-28T19:00:12.125Z,92.70
2018-08-28T19:02:40.674Z,92.40
2018-08-28T19:05:09.108Z,92.40
2018-08-28T19:07:37.625Z,91.10
2018-08-28T19:10:06.054Z,91.80
2018-08-28T19:12:34.520Z,91.70
2018-08-28T19:15:02.997Z,92.90
2018-08-28T19:17:31.474Z,92.90
2018-08-28T19:19:59.977Z,92.90
2018-08-28T19:22:28.443Z,92.80
2018-08-28T19:24:56.901Z,94.10
2018-08-28T19:27:25.375Z,95.60
2018-08-28T19:29:53.805Z,96.30
2018-08-28T19:32:22.283Z,97.50
2018-08-28T19:34:50.759Z,98.30
2018-08-28T19:37:19.214Z,98.20
2018-08-28T19:39:47.671Z,98.00
2018-08-28T19:42:16.169Z,98.00
2018-08-28T19:44:44.636Z,98.30
2018-08-28T19:47:13.109Z,99.10
2018-08-28T19:49:41.576Z,99.90
2018-08-28T19:52:10.041Z,99.90
2018-08-28T19:54:38.531Z,99.90
2018-08-28T19:57:06.994Z,99.90
2018-08-28T19:59:35.424Z,99.90
2018-08-28T20:02:03.861Z,99.90
2018-08-28T20:04:32.291Z,99.90
2018-08-28T20:07:00.703Z,99.90
2018-08-28T20:09:29.148Z,99.90
2018-08-28T20:11:57.584Z,99.90
2018-08-28T20:14:26.129Z,99.90
2018-08-28T20:16:54.565Z,99.90
2018-08-28T20:19:23.017Z,99.90
2018-08-28T20:21:51.489Z,99.90
2018-08-28T20:24:19.926Z,99.90
2018-08-28T20:26:48.401Z,99.90
2018-08-28T20:29:16.883Z,99.90
2018-08-28T20:31:45.338Z,99.90
2018-08-28T20:34:13.793Z,99.90
2018-08-28T20:36:42.209Z,99.90
2018-08-28T20:39:10.670Z,99.90
2018-08-28T20:41:39.164Z,99.90
2018-08-28T20:44:07.590Z,99.90
2018-08-28T20:46:36.094Z,99.90
2018-08-28T20:49:04.555Z,99.90
2018-08-28T20:51:33.001Z,99.90
2018-08-28T20:54:01.459Z,99.90
2018-08-28T20:56:29.895Z,99.90
2018-08-28T20:58:58.321Z,99.90
2018-08-28T21:01:26.800Z,99.90
2018-08-28T21:03:55.216Z,99.90
2018-08-28T21:06:23.758Z,99.90
2018-08-28T21:08:52.185Z,99.90
2018-08-28T21:11:20.640Z,99.90
2018-08-28T21:13:49.182Z,99.90
2018-08-28T21:16:17.697Z,99.90
2018-08-28T21:18:46.144Z,99.90
2018-08-28T21:21:14.598Z,99.90
2018-08-28T21:23:43.022Z,99.90
2018-08-28T21:26:11.492Z,99.90
2018-08-28T21:28:40.137Z,99.90
2018-08-28T21:31:08.600Z,99.90
2018-08-28T21:33:37.020Z,99.90
2018-08-28T21:36:05.512Z,99.90
2018-08-28T21:38:33.933Z,99.90
2018-08-28T21:41:02.379Z,99.90
2018-08-28T21:43:30.801Z,99.90
2018-08-28T21:45:59.245Z,99.90
2018-08-28T21:48:27.670Z,99.90
2018-08-28T21:50:56.182Z,99.90
2018-08-28T21:53:24.609Z,99.90
2018-08-28T21:55:53.081Z,99.90
2018-08-28T21:58:21.527Z,99.90
2018-08-28T22:00:55.326Z,99.90
2018-08-28T22:03:23.779Z,99.90
2018-08-28T22:05:52.219Z,99.90
2018-08-28T22:08:20.705Z,99.90
2018-08-28T22:10:49.224Z,99.90
2018-08-28T22:13:17.696Z,99.90
2018-08-28T22:15:46.170Z,99.90
2018-08-28T22:18:14.659Z,99.90
2018-08-28T22:20:57.580Z,99.90
2018-08-28T22:23:26.439Z,99.90
2018-08-28T22:25:54.844Z,99.90
2018-08-28T22:28:23.255Z,99.90
2018-08-28T22:30:51.742Z,99.90
2018-08-28T22:33:20.155Z,99.90
2018-08-28T22:35:48.550Z,99.90
2018-08-28T22:38:16.988Z,99.90
2018-08-28T22:40:45.406Z,99.90
2018-08-28T22:43:18.049Z,99.90
2018-08-28T22:45:46.470Z,99.90
2018-08-28T22:48:14.937Z,99.90
2018-08-28T22:50:43.321Z,99.90
2018-08-28T22:53:11.700Z,99.90
2018-08-28T22:55:40.144Z,99.90
2018-08-28T22:58:08.567Z,99.90
2018-08-28T23:00:37.017Z,99.90
2018-08-28T23:03:05.540Z,99.90
2018-08-28T23:05:34.025Z,99.90
2018-08-28T23:08:02.475Z,99.90
2018-08-28T23:10:30.921Z,99.90
2018-08-28T23:12:59.334Z,99.90
2018-08-28T23:15:27.763Z,99.90
2018-08-28T23:17:56.193Z,99.90
2018-08-28T23:20:24.656Z,99.90
2018-08-28T23:22:53.067Z,99.90
2018-08-28T23:25:21.528Z,99.90
2018-08-28T23:27:49.924Z,99.90
2018-08-28T23:30:18.336Z,99.90
2018-08-28T23:32:46.750Z,99.90
2018-08-28T23:35:15.209Z,99.90
2018-08-28T23:37:43.689Z,99.90
2018-08-28T23:40:12.170Z,99.90
2018-08-28T23:42:40.568Z,99.90
2018-08-28T23:45:08.985Z,99.90
2018-08-28T23:47:37.416Z,99.90
2018-08-28T23:50:06.054Z,99.90
2018-08-28T23:52:34.468Z,99.90
2018-08-28T23:55:02.930Z,99.90
2018-08-28T23:57:31.407Z,99.90
2018-08-28T23:59:59.852Z,99.90
